createdAt,value
2023-01-17T00:01:57.570Z,1.92
2023-01-17T00:07:17.396Z,3.05
2023-01-17T00:12:20.698Z,2.13
2023-01-17T00:17:26.693Z,4.45
2023-01-17T00:22:48.419Z,1.83
2023-01-17T00:27:49.788Z,2.78
2023-01-17T00:32:51.317Z,2.28
2023-01-17T00:38:13.237Z,7.55
2023-01-17T00:43:35.867Z,1.08
2023-01-17T00:48:57.055Z,2.67
2023-01-17T00:54:18.991Z,1.48
2023-01-17T00:59:39.353Z,2.05
2023-01-17T01:04:59.337Z,1.30
2023-01-17T01:10:19.475Z,3.47
2023-01-17T01:15:39.649Z,3.03
2023-01-17T01:20:59.650Z,5.60
2023-01-17T01:26:21.690Z,3.58
2023-01-17T01:31:41.592Z,2.80
2023-01-17T01:36:43.111Z,3.45
2023-01-17T01:41:44.595Z,6.53
2023-01-17T01:46:46.286Z,2.53
2023-01-17T01:51:54.277Z,3.08
2023-01-17T01:56:58.807Z,4.53
2023-01-17T02:02:00.798Z,1.65
2023-01-17T02:07:10.906Z,2.42
2023-01-17T02:12:13.379Z,3.17
2023-01-17T02:17:17.531Z,5.28
2023-01-17T02:22:24.765Z,2.83
2023-01-17T02:27:40.041Z,2.03
2023-01-17T02:32:52.936Z,4.50
2023-01-17T02:38:15.957Z,2.78
2023-01-17T02:43:20.401Z,7.18
2023-01-17T02:48:25.815Z,1.30
2023-01-17T02:53:27.190Z,2.92
2023-01-17T02:59:05.726Z,5.50
2023-01-17T03:04:15.248Z,1.40
2023-01-17T03:09:18.804Z,1.73
2023-01-17T03:14:20.370Z,1.55
2023-01-17T03:19:21.800Z,1.17
2023-01-17T03:24:23.485Z,4.15
2023-01-17T03:29:24.911Z,1.77
2023-01-17T03:34:26.354Z,3.40
2023-01-17T03:39:27.825Z,3.72
2023-01-17T03:44:29.316Z,2.85
2023-01-17T03:49:31.287Z,2.55
2023-01-17T03:54:33.174Z,5.88
2023-01-17T03:59:34.674Z,6.68
2023-01-17T04:04:36.172Z,7.80
2023-01-17T04:09:37.656Z,2.90
2023-01-17T04:14:39.714Z,7.47
2023-01-17T04:19:41.345Z,8.65
2023-01-17T04:24:42.748Z,5.78
2023-01-17T04:29:46.589Z,3.63
2023-01-17T04:34:48.222Z,6.10
2023-01-17T04:39:49.807Z,5.47
2023-01-17T04:44:51.319Z,5.78
2023-01-17T04:49:53.547Z,4.22
2023-01-17T04:54:54.998Z,5.43
2023-01-17T04:59:56.402Z,5.93
2023-01-17T05:04:57.973Z,9.48
2023-01-17T05:10:02.076Z,5.00
2023-01-17T05:15:03.899Z,6.47
2023-01-17T05:20:05.914Z,8.07
2023-01-17T05:25:07.710Z,8.93
2023-01-17T05:30:09.947Z,7.22
2023-01-17T05:35:11.368Z,7.90
2023-01-17T05:40:13.129Z,11.90
2023-01-17T05:45:16.890Z,12.52
2023-01-17T05:50:23.842Z,7.68
2023-01-17T05:55:27.037Z,11.77
2023-01-17T06:00:29.534Z,10.20
2023-01-17T06:05:31.427Z,16.83
2023-01-17T06:10:33.193Z,9.18
2023-01-17T06:15:36.501Z,6.50
2023-01-17T06:20:38.259Z,14.18
2023-01-17T06:25:44.807Z,7.32
2023-01-17T06:30:46.730Z,7.93
2023-01-17T06:35:49.832Z,7.38
2023-01-17T06:40:51.395Z,8.25
2023-01-17T06:45:54.699Z,9.25
2023-01-17T06:50:57.502Z,10.35
2023-01-17T06:55:59.077Z,13.02
2023-01-17T07:01:11.348Z,9.95
2023-01-17T07:06:12.927Z,12.77
2023-01-17T07:11:14.380Z,9.43
2023-01-17T07:16:15.892Z,14.55
2023-01-17T07:21:17.404Z,12.05
2023-01-17T07:26:19.152Z,7.55
2023-01-17T07:31:20.609Z,10.50
2023-01-17T07:36:22.028Z,7.20
2023-01-17T07:41:23.505Z,12.45
2023-01-17T07:46:24.945Z,19.33
2023-01-17T07:51:26.383Z,11.70
2023-01-17T07:56:27.986Z,9.27
2023-01-17T08:01:30.068Z,8.00
2023-01-17T08:06:31.640Z,12.30
2023-01-17T08:11:33.123Z,10.38
2023-01-17T08:16:34.643Z,9.13
2023-01-17T08:21:36.094Z,16.63
2023-01-17T08:26:37.531Z,10.15
2023-01-17T08:31:39.075Z,11.38
2023-01-17T08:36:42.783Z,11.32
2023-01-17T08:41:44.247Z,11.05
2023-01-17T08:46:45.668Z,10.13
2023-01-17T08:51:47.083Z,7.57
2023-01-17T08:56:49.535Z,14.93
2023-01-17T09:01:52.376Z,14.55
2023-01-17T09:06:54.028Z,8.23
2023-01-17T09:11:55.437Z,11.07
2023-01-17T09:16:56.864Z,12.88
2023-01-17T09:21:58.599Z,11.25
2023-01-17T09:27:00.395Z,12.02
2023-01-17T09:32:02.046Z,6.90
2023-01-17T09:37:03.484Z,9.15
2023-01-17T09:42:25.492Z,7.82
2023-01-17T09:47:35.970Z,12.27
2023-01-17T09:52:37.428Z,6.88
2023-01-17T09:58:01.502Z,13.00
2023-01-17T10:03:13.317Z,5.32
2023-01-17T10:08:20.227Z,13.88
2023-01-17T10:13:53.493Z,8.90
2023-01-17T10:19:03.794Z,4.35
2023-01-17T10:24:21.699Z,11.18
2023-01-17T10:29:27.999Z,5.00
2023-01-17T10:34:41.933Z,13.43
2023-01-17T10:39:46.297Z,8.35
2023-01-17T10:44:59.119Z,12.50
2023-01-17T10:50:04.985Z,8.57
2023-01-17T10:55:30.880Z,6.05
2023-01-17T11:00:59.840Z,4.60
2023-01-17T11:06:18.433Z,7.80
2023-01-17T11:11:23.284Z,13.93
2023-01-17T11:16:28.596Z,7.07
2023-01-17T11:21:30.649Z,6.20
2023-01-17T11:26:34.676Z,8.40
2023-01-17T11:31:36.157Z,10.10
2023-01-17T11:36:37.659Z,3.83
2023-01-17T11:41:41.423Z,6.90
2023-01-17T11:46:42.828Z,8.10
2023-01-17T11:51:44.312Z,5.65
2023-01-17T11:56:46.331Z,5.53
2023-01-17T12:02:15.545Z,5.90
2023-01-17T12:07:27.308Z,10.23
2023-01-17T12:12:53.317Z,3.58
2023-01-17T12:18:13.492Z,6.05
2023-01-17T12:23:25.532Z,3.42
2023-01-17T12:28:46.062Z,3.47
2023-01-17T12:34:01.990Z,8.05
2023-01-17T12:39:09.267Z,2.10
2023-01-17T12:44:15.465Z,2.67
2023-01-17T12:49:35.251Z,4.10
2023-01-17T12:54:44.261Z,4.45
2023-01-17T12:59:55.686Z,2.58
2023-01-17T13:05:05.156Z,3.83
2023-01-17T13:10:32.269Z,5.35
2023-01-17T13:15:39.636Z,4.18
2023-01-17T13:21:06.045Z,4.10
2023-01-17T13:26:32.788Z,5.75
2023-01-17T13:31:49.404Z,5.53
2023-01-17T13:37:09.482Z,7.72
2023-01-17T13:42:48.427Z,5.18
2023-01-17T13:47:49.944Z,3.72
2023-01-17T13:52:51.370Z,3.90
2023-01-17T13:57:52.782Z,4.45
2023-01-17T14:02:55.626Z,1.52
2023-01-17T14:08:03.758Z,5.97
2023-01-17T14:13:24.873Z,4.85
2023-01-17T14:18:46.639Z,4.30
2023-01-17T14:23:53.364Z,12.05
2023-01-17T14:28:57.836Z,5.78
2023-01-17T14:34:11.957Z,5.63
2023-01-17T14:39:22.838Z,4.68
2023-01-17T14:44:24.412Z,8.07
2023-01-17T14:49:26.900Z,2.00
2023-01-17T14:54:29.044Z,1.42
2023-01-17T14:59:30.502Z,4.07
2023-01-17T15:04:35.439Z,4.72
2023-01-17T15:09:37.739Z,5.97
2023-01-17T15:14:43.291Z,2.13
2023-01-17T15:19:47.723Z,4.00
2023-01-17T15:24:49.577Z,2.97
2023-01-17T15:29:51.804Z,3.28
2023-01-17T15:34:53.894Z,1.45
2023-01-17T15:40:05.763Z,1.52
2023-01-17T15:45:15.516Z,13.75
2023-01-17T15:50:20.279Z,5.07
2023-01-17T15:55:24.616Z,5.22
2023-01-17T16:00:38.984Z,2.47
2023-01-17T16:05:43.432Z,1.77
2023-01-17T16:10:44.952Z,2.22
2023-01-17T16:15:46.601Z,6.32
2023-01-17T16:20:55.277Z,7.13
2023-01-17T16:25:56.805Z,8.52
2023-01-17T16:30:58.475Z,4.20
2023-01-17T16:35:59.957Z,7.90
2023-01-17T16:41:04.245Z,2.92
2023-01-17T16:46:06.222Z,4.18
2023-01-17T16:51:08.321Z,4.65
2023-01-17T16:56:13.485Z,7.40
2023-01-17T17:01:17.219Z,4.10
2023-01-17T17:06:18.794Z,12.30
2023-01-17T17:11:22.984Z,2.63
2023-01-17T17:16:29.896Z,3.00
2023-01-17T17:21:32.998Z,3.42
2023-01-17T17:26:36.572Z,5.45
2023-01-17T17:31:39.857Z,3.58
2023-01-17T17:36:42.015Z,6.03
2023-01-17T17:41:45.653Z,10.50
2023-01-17T17:46:49.236Z,6.38
2023-01-17T17:51:50.728Z,9.63
2023-01-17T17:56:52.144Z,9.23
2023-01-17T18:01:53.800Z,7.18
2023-01-17T18:06:57.307Z,11.55
2023-01-17T18:11:58.781Z,13.32
2023-01-17T18:17:00.305Z,13.50
2023-01-17T18:22:03.330Z,11.63
2023-01-17T18:27:04.805Z,11.45
2023-01-17T18:32:06.304Z,9.50
2023-01-17T18:37:07.762Z,7.70
2023-01-17T18:42:11.530Z,8.65
2023-01-17T18:47:13.055Z,9.38
2023-01-17T18:52:14.933Z,6.90
2023-01-17T18:57:16.368Z,10.57
2023-01-17T19:02:19.432Z,9.90
2023-01-17T19:07:21.593Z,13.63
2023-01-17T19:12:23.014Z,12.50
2023-01-17T19:17:24.451Z,11.80
2023-01-17T19:22:25.863Z,8.55
2023-01-17T19:27:27.369Z,11.65
2023-01-17T19:32:28.881Z,7.95
2023-01-17T19:37:30.290Z,13.30
2023-01-17T19:42:31.716Z,10.77
2023-01-17T19:47:33.786Z,13.13
2023-01-17T19:52:35.929Z,8.68
2023-01-17T19:57:37.557Z,17.90
2023-01-17T20:02:39.367Z,10.73
2023-01-17T20:07:40.877Z,15.27
2023-01-17T20:12:42.392Z,50.85
2023-01-17T20:17:43.918Z,38.95
2023-01-17T20:22:45.379Z,18.63
2023-01-17T20:27:46.797Z,13.13
2023-01-17T20:32:48.209Z,13.02
2023-01-17T20:37:52.587Z,14.32
2023-01-17T20:42:54.050Z,12.45
2023-01-17T20:47:55.843Z,14.07
2023-01-17T20:52:57.482Z,12.13
2023-01-17T20:57:59.680Z,14.48
2023-01-17T21:03:01.570Z,22.40
2023-01-17T21:08:03.839Z,22.98
2023-01-17T21:13:05.259Z,14.43
2023-01-17T21:18:06.710Z,14.40
2023-01-17T21:23:10.063Z,14.43
2023-01-17T21:28:11.564Z,19.58
2023-01-17T21:33:13.158Z,9.55
2023-01-17T21:38:15.211Z,11.55
2023-01-17T21:43:16.670Z,13.90
2023-01-17T21:48:18.147Z,12.27
2023-01-17T21:53:19.666Z,21.73
2023-01-17T21:58:39.973Z,11.38
2023-01-17T22:03:42.101Z,21.83
2023-01-17T22:13:46.092Z,27.00
2023-01-17T22:18:47.836Z,18.80
2023-01-17T22:23:54.578Z,35.35
2023-01-17T22:28:59.109Z,22.38
2023-01-17T22:39:04.512Z,20.80
2023-01-17T22:44:07.447Z,23.90
2023-01-17T22:49:13.163Z,21.08
2023-01-17T22:54:14.818Z,18.38
2023-01-17T22:59:16.332Z,15.80
2023-01-17T23:04:17.766Z,20.90
2023-01-17T23:09:19.203Z,17.35
2023-01-17T23:14:52.371Z,16.17
2023-01-17T23:19:56.775Z,21.95
2023-01-17T23:25:06.963Z,20.13
2023-01-17T23:30:12.554Z,21.33
2023-01-17T23:35:14.970Z,19.65
2023-01-17T23:45:19.079Z,27.17
2023-01-17T23:50:20.712Z,15.48
2023-01-17T23:55:23.027Z,16.98
